Weather at Balıkesir Manyas Airfield

Public forecast

Using degrees Celsius for public forecast. Weather courtesy of forecast.io.

Closest aviation weather report (METAR) to Balıkesir Manyas Airfield

Closest report is Bandırma Airport, 12.3 nm (22.8 km) N. Retrieved 2022/01/21 18:50 UTC (46 minutes ago):

LTBG 211850Z 32015KT 9999 -SHRA SCT010 BKN030 BKN090 03/03 Q1019 NOSIG RMK RWY18 33016KT

Closest aviation forecast (TAF) to Balıkesir Manyas Airfield

Closest forecast is Tekirdağ Çorlu Airport, 61.4 nm (113.8 km) N. Retrieved 2022/01/21 18:03 UTC (2 hours ago):

TAF LTBU 211640Z 2118/2218 33010KT 7000 -SHSN FEW006 BKN025 BECMG 2121/2124 SCT032 BKN080